Time;durP1;ratioP1;P1;durP2;ratioP2;P2;SDS_P1;SDS_P2;PMS_P1;PMS_P2;Temp;Humidity;BMP_temperature;BMP_pressure;BME280_temperature;BME280_humidity;BME280_pressure;Samples;Min_cycle;Max_cycle;Signal;HPM_P1;HPM_P2
2022/10/10 00:01:27;;;;;;;5.60;4.07;;;12.00;99.90;;;;;;5058301;28;20677;-33
2022/10/10 00:03:55;;;;;;;6.60;4.27;;;11.90;99.90;;;;;;5065253;28;20227;-33
2022/10/10 00:06:22;;;;;;;6.00;3.93;;;11.90;99.90;;;;;;5062164;28;20195;-33
2022/10/10 00:08:51;;;;;;;8.33;4.17;;;11.90;99.90;;;;;;5066984;28;20233;-33
2022/10/10 00:11:20;;;;;;;4.97;3.67;;;11.90;99.90;;;;;;5052721;28;20195;-33
2022/10/10 00:13:48;;;;;;;6.93;4.00;;;11.90;99.90;;;;;;5063591;28;20655;-34
2022/10/10 00:16:19;;;;;;;5.87;3.57;;;11.90;99.90;;;;;;5057404;28;20306;-32
2022/10/10 00:18:47;;;;;;;5.77;4.30;;;11.90;99.90;;;;;;5047706;28;20232;-32
2022/10/10 00:21:19;;;;;;;6.37;3.93;;;11.80;99.90;;;;;;5062071;28;21196;-32
2022/10/10 00:23:46;;;;;;;4.63;3.60;;;11.80;99.90;;;;;;5048139;28;20208;-32
2022/10/10 00:26:15;;;;;;;6.67;4.00;;;11.90;99.90;;;;;;5060605;28;20321;-32
2022/10/10 00:28:46;;;;;;;6.03;3.87;;;11.90;99.90;;;;;;5063397;28;20223;-32
2022/10/10 00:31:14;;;;;;;8.80;4.43;;;11.80;99.90;;;;;;5051358;28;20203;-34
2022/10/10 00:33:41;;;;;;;9.20;3.97;;;11.80;99.90;;;;;;5058317;28;20207;-32
2022/10/10 00:36:08;;;;;;;6.43;4.30;;;11.70;99.90;;;;;;5047922;28;20203;-39
2022/10/10 00:38:35;;;;;;;6.57;4.00;;;11.70;99.90;;;;;;5054608;28;20694;-34
2022/10/10 00:41:03;;;;;;;8.13;4.57;;;11.70;99.90;;;;;;5066701;28;20212;-32
2022/10/10 00:43:31;;;;;;;5.97;4.03;;;11.70;99.90;;;;;;5049214;28;20208;-33
2022/10/10 00:45:59;;;;;;;6.80;4.13;;;11.60;99.90;;;;;;5047820;28;20306;-32
2022/10/10 00:48:26;;;;;;;7.13;4.10;;;11.60;99.90;;;;;;5064715;28;20208;-32
2022/10/10 00:51:08;;;;;;;5.93;4.13;;;11.50;99.90;;;;;;5066846;28;20227;-32
2022/10/10 00:53:41;;;;;;;4.87;3.97;;;11.50;99.90;;;;;;5058271;28;20299;-32
2022/10/10 00:56:10;;;;;;;6.77;4.37;;;11.50;99.90;;;;;;5059904;28;20195;-33
2022/10/10 00:58:41;;;;;;;6.33;3.97;;;11.50;99.90;;;;;;5062301;28;20192;-33
2022/10/10 01:01:08;;;;;;;6.77;4.40;;;11.40;99.90;;;;;;5066666;28;20211;-33
2022/10/10 01:03:36;;;;;;;6.07;4.00;;;11.40;99.90;;;;;;5058356;28;20208;-33
2022/10/10 01:06:05;;;;;;;6.97;4.97;;;11.40;99.90;;;;;;5064186;28;20204;-33
2022/10/10 01:08:32;;;;;;;7.37;4.63;;;11.30;99.90;;;;;;5062419;28;20208;-33
2022/10/10 01:11:27;;;;;;;6.43;4.47;;;11.30;99.90;;;;;;5055950;28;20280;-33
2022/10/10 01:14:17;;;;;;;7.10;4.67;;;11.30;99.90;;;;;;5058304;28;20231;-33
2022/10/10 01:16:56;;;;;;;6.60;4.17;;;11.20;99.90;;;;;;5050948;28;20201;-33
2022/10/10 01:19:38;;;;;;;7.13;4.03;;;11.20;99.90;;;;;;5055566;28;20320;-33
2022/10/10 01:22:37;;;;;;;5.67;4.30;;;11.20;99.90;;;;;;5050093;28;20217;-33
2022/10/10 01:25:29;;;;;;;7.10;4.10;;;11.10;99.90;;;;;;5053682;28;20487;-33
2022/10/10 01:28:41;;;;;;;8.43;4.33;;;11.10;99.90;;;;;;5061163;28;20677;-33
2022/10/10 01:31:12;;;;;;;7.40;4.00;;;11.10;99.90;;;;;;5064340;28;20655;-33
2022/10/10 01:34:10;;;;;;;6.83;4.70;;;11.10;99.90;;;;;;5071189;28;20188;-33
2022/10/10 01:37:00;;;;;;;5.57;3.97;;;11.10;99.90;;;;;;5065166;28;20215;-33
2022/10/10 01:39:39;;;;;;;5.73;3.70;;;11.00;99.90;;;;;;5068377;28;20219;-33
2022/10/10 01:42:25;;;;;;;7.23;4.60;;;11.00;99.90;;;;;;5052901;28;20207;-33
2022/10/10 01:44:53;;;;;;;6.37;3.90;;;10.90;99.90;;;;;;5051435;28;20311;-33
2022/10/10 01:47:21;;;;;;;6.33;4.03;;;10.90;99.90;;;;;;5056548;28;20191;-33
2022/10/10 01:50:02;;;;;;;5.53;4.27;;;10.90;99.90;;;;;;5051860;28;20236;-33
2022/10/10 01:52:46;;;;;;;4.90;3.60;;;10.90;99.90;;;;;;5064757;28;20203;-33
2022/10/10 01:55:32;;;;;;;7.70;4.20;;;10.90;99.90;;;;;;5055254;28;20204;-33
2022/10/10 01:58:29;;;;;;;7.40;4.53;;;10.80;99.90;;;;;;5060732;28;20199;-33
2022/10/10 02:01:20;;;;;;;6.30;4.20;;;10.80;99.90;;;;;;5068548;28;20212;-33
2022/10/10 02:03:54;;;;;;;5.63;3.87;;;10.80;99.90;;;;;;5065869;28;20257;-33
2022/10/10 02:06:35;;;;;;;6.13;4.03;;;10.70;99.90;;;;;;5068206;28;20203;-33
2022/10/10 02:09:14;;;;;;;5.23;3.83;;;10.70;99.90;;;;;;5063151;28;20276;-33
2022/10/10 02:11:42;;;;;;;7.10;4.10;;;10.70;99.90;;;;;;5065564;28;20219;-33
2022/10/10 02:14:16;;;;;;;8.60;4.00;;;10.70;99.90;;;;;;5069259;28;20286;-33
2022/10/10 02:16:48;;;;;;;6.27;3.77;;;10.70;99.90;;;;;;5069437;28;20207;-33
2022/10/10 02:19:19;;;;;;;5.97;3.87;;;10.70;99.90;;;;;;5059369;28;20244;-33
2022/10/10 02:21:50;;;;;;;7.00;4.63;;;10.60;99.90;;;;;;5057910;28;20623;-33
2022/10/10 02:24:20;;;;;;;7.17;3.87;;;10.60;99.90;;;;;;5068637;28;20195;-33
2022/10/10 02:27:02;;;;;;;5.73;3.70;;;10.60;99.90;;;;;;5056004;28;20214;-33
2022/10/10 02:29:33;;;;;;;5.37;4.20;;;10.60;99.90;;;;;;5054585;28;20215;-33
2022/10/10 02:32:05;;;;;;;7.50;4.10;;;10.60;99.90;;;;;;5068575;28;20195;-33
2022/10/10 02:34:37;;;;;;;5.40;4.20;;;10.60;99.90;;;;;;5067910;28;20199;-33
2022/10/10 02:37:09;;;;;;;5.40;3.90;;;10.60;99.90;;;;;;5067643;28;20216;-33
2022/10/10 02:39:44;;;;;;;5.40;3.57;;;10.50;99.90;;;;;;5066524;28;20199;-33
2022/10/10 02:42:15;;;;;;;6.67;3.67;;;10.60;99.90;;;;;;5050456;28;20202;-33
2022/10/10 02:44:43;;;;;;;6.17;3.87;;;10.50;99.90;;;;;;5064766;28;20302;-33
2022/10/10 02:47:10;;;;;;;6.20;3.60;;;10.50;99.90;;;;;;5051273;28;21500;-33
2022/10/10 02:49:38;;;;;;;7.87;4.10;;;10.50;99.90;;;;;;5067025;28;20219;-33
2022/10/10 02:52:05;;;;;;;6.87;4.10;;;10.50;99.90;;;;;;5058500;28;20230;-33
2022/10/10 02:54:33;;;;;;;4.93;3.70;;;10.50;99.90;;;;;;5066819;28;20199;-32
2022/10/10 02:57:00;;;;;;;9.00;4.10;;;10.50;99.90;;;;;;5057962;28;20604;-32
2022/10/10 02:59:27;;;;;;;6.13;3.97;;;10.50;99.90;;;;;;5049622;28;20212;-32
2022/10/10 03:01:57;;;;;;;6.03;3.80;;;10.50;99.90;;;;;;5063016;28;20203;-33
2022/10/10 03:04:25;;;;;;;5.77;4.33;;;10.50;99.90;;;;;;5068628;28;20204;-32
2022/10/10 03:06:52;;;;;;;5.93;4.17;;;10.50;99.90;;;;;;5068596;28;20222;-32
2022/10/10 03:09:21;;;;;;;5.43;4.13;;;10.50;99.90;;;;;;5065291;28;20195;-32
2022/10/10 03:11:51;;;;;;;7.53;4.13;;;10.50;99.90;;;;;;5052404;28;20200;-32
2022/10/10 03:14:18;;;;;;;6.90;4.23;;;10.50;99.90;;;;;;5052867;28;20224;-32
2022/10/10 03:16:45;;;;;;;6.03;4.40;;;10.50;99.90;;;;;;5068785;28;20692;-32
2022/10/10 03:19:14;;;;;;;6.13;4.23;;;10.50;99.90;;;;;;5051606;28;20232;-32
2022/10/10 03:21:42;;;;;;;7.20;4.60;;;10.50;99.90;;;;;;5070682;28;20214;-32
2022/10/10 03:24:09;;;;;;;5.73;4.33;;;10.50;99.90;;;;;;5067337;28;20581;-32
2022/10/10 03:26:36;;;;;;;7.60;4.70;;;10.40;99.90;;;;;;5050502;28;20211;-32
2022/10/10 03:29:04;;;;;;;6.53;4.20;;;10.40;99.90;;;;;;5055017;28;20202;-32
2022/10/10 03:31:34;;;;;;;9.20;4.90;;;10.40;99.90;;;;;;5050927;28;20599;-32
2022/10/10 03:34:01;;;;;;;6.90;4.20;;;10.40;99.90;;;;;;5049206;28;20240;-32
2022/10/10 03:36:30;;;;;;;7.33;4.47;;;10.40;99.90;;;;;;5047613;28;20184;-32
2022/10/10 03:39:00;;;;;;;5.57;4.07;;;10.40;99.90;;;;;;5053414;28;20212;-32
2022/10/10 03:41:27;;;;;;;7.30;4.23;;;10.40;99.90;;;;;;5054549;28;20262;-32
2022/10/10 03:43:54;;;;;;;9.10;4.40;;;10.40;99.90;;;;;;5065988;28;20303;-32
2022/10/10 03:46:21;;;;;;;6.17;4.23;;;10.40;99.90;;;;;;5058487;28;20245;-32
2022/10/10 03:48:49;;;;;;;5.43;4.23;;;10.40;99.90;;;;;;5060062;28;20574;-32
2022/10/10 03:51:18;;;;;;;7.80;4.07;;;10.40;99.90;;;;;;5052041;28;20212;-32
2022/10/10 03:53:45;;;;;;;5.73;4.03;;;10.30;99.90;;;;;;5068066;28;20204;-32
2022/10/10 03:56:13;;;;;;;7.03;4.00;;;10.40;99.90;;;;;;5052164;28;20205;-32
2022/10/10 03:58:40;;;;;;;6.73;3.83;;;10.40;99.90;;;;;;5057532;28;20200;-32
2022/10/10 04:01:07;;;;;;;9.13;4.40;;;10.40;99.90;;;;;;5059726;28;20204;-32
2022/10/10 04:03:34;;;;;;;9.13;4.60;;;10.30;99.90;;;;;;5066969;28;20203;-31
2022/10/10 04:06:04;;;;;;;6.57;4.10;;;10.30;99.90;;;;;;5065665;28;20743;-31
2022/10/10 04:08:33;;;;;;;8.93;4.40;;;10.30;99.90;;;;;;5058271;28;20254;-31
2022/10/10 04:11:01;;;;;;;7.77;4.13;;;10.30;99.90;;;;;;5059813;28;20230;-31
2022/10/10 04:13:28;;;;;;;7.37;4.67;;;10.30;99.90;;;;;;5062080;28;20700;-31
2022/10/10 04:15:56;;;;;;;4.87;3.90;;;10.30;99.90;;;;;;5057159;28;20208;-31
2022/10/10 04:18:25;;;;;;;6.50;4.03;;;10.30;99.90;;;;;;5056572;28;20236;-31
2022/10/10 04:21:02;;;;;;;6.13;4.20;;;10.30;99.90;;;;;;5054452;28;20220;-34
2022/10/10 04:23:31;;;;;;;5.20;3.83;;;10.30;99.90;;;;;;5059169;28;20207;-34
2022/10/10 04:25:59;;;;;;;8.43;4.33;;;10.30;99.90;;;;;;5063626;28;20208;-34
2022/10/10 04:28:26;;;;;;;8.60;4.17;;;10.30;99.90;;;;;;5056857;28;20226;-35
2022/10/10 04:30:55;;;;;;;7.97;5.10;;;10.20;99.90;;;;;;5049261;28;20224;-34
2022/10/10 04:33:23;;;;;;;6.53;4.63;;;10.20;99.90;;;;;;5062001;28;20242;-33
2022/10/10 04:35:50;;;;;;;6.60;4.30;;;10.20;99.90;;;;;;5053378;28;20258;-32
2022/10/10 04:38:20;;;;;;;5.17;4.03;;;10.20;99.90;;;;;;5058930;28;20219;-33
2022/10/10 04:40:50;;;;;;;8.77;4.97;;;10.20;99.90;;;;;;5056482;28;20694;-33
2022/10/10 04:43:18;;;;;;;5.90;3.83;;;10.10;99.90;;;;;;5061545;28;20222;-33
2022/10/10 04:45:45;;;;;;;9.70;4.50;;;10.10;99.90;;;;;;5059932;28;20705;-33
2022/10/10 04:48:13;;;;;;;6.70;4.50;;;10.10;99.90;;;;;;5047517;28;20204;-33
2022/10/10 04:50:40;;;;;;;6.90;4.37;;;10.10;99.90;;;;;;5049864;28;20310;-33
2022/10/10 04:53:08;;;;;;;6.90;4.83;;;10.10;99.90;;;;;;5048287;28;20208;-34
2022/10/10 04:55:35;;;;;;;6.10;4.57;;;10.10;99.90;;;;;;5053148;28;20203;-31
2022/10/10 04:58:02;;;;;;;6.37;4.43;;;10.10;99.90;;;;;;5061434;28;20741;-32
2022/10/10 05:00:30;;;;;;;4.77;3.93;;;10.10;99.90;;;;;;5052706;28;20196;-33
2022/10/10 05:02:57;;;;;;;7.43;5.20;;;10.10;99.90;;;;;;5064759;28;20245;-34
2022/10/10 05:05:24;;;;;;;7.23;4.93;;;10.10;99.90;;;;;;5047274;28;20291;-34
2022/10/10 05:07:51;;;;;;;8.93;4.47;;;10.10;99.90;;;;;;5054751;28;20206;-33
2022/10/10 05:10:23;;;;;;;6.90;4.70;;;10.10;99.90;;;;;;5057010;28;20224;-35
2022/10/10 05:12:51;;;;;;;6.10;5.07;;;10.10;99.90;;;;;;5047572;28;20610;-34
2022/10/10 05:15:20;;;;;;;9.23;4.80;;;10.10;99.90;;;;;;5054618;28;20692;-34
2022/10/10 05:17:47;;;;;;;10.23;4.87;;;10.10;99.90;;;;;;5064323;28;20289;-34
2022/10/10 05:20:14;;;;;;;7.53;4.97;;;10.10;99.90;;;;;;5051117;28;20223;-33
2022/10/10 05:22:41;;;;;;;9.53;4.53;;;10.10;99.90;;;;;;5060777;28;20235;-33
2022/10/10 05:25:09;;;;;;;10.00;4.60;;;10.10;99.90;;;;;;5048617;28;20284;-34
2022/10/10 05:27:36;;;;;;;11.50;5.03;;;10.10;99.90;;;;;;5056446;28;20778;-36
2022/10/10 05:30:06;;;;;;;7.43;4.80;;;10.10;99.90;;;;;;5047586;28;20284;-31
2022/10/10 05:32:34;;;;;;;9.23;5.50;;;10.10;99.90;;;;;;5051416;28;20232;-32
2022/10/10 05:35:03;;;;;;;5.93;4.60;;;10.10;99.90;;;;;;5060414;28;20281;-33
2022/10/10 05:37:31;;;;;;;9.13;4.77;;;10.10;99.90;;;;;;5061041;28;20381;-33
2022/10/10 05:39:58;;;;;;;8.10;4.63;;;10.20;99.90;;;;;;5064369;28;20232;-33
2022/10/10 05:42:25;;;;;;;8.13;4.27;;;10.10;99.90;;;;;;5052726;28;20773;-33
2022/10/10 05:44:53;;;;;;;7.53;4.47;;;10.20;99.90;;;;;;5050348;28;20203;-33
2022/10/10 05:47:20;;;;;;;8.10;4.80;;;10.20;99.90;;;;;;5063663;28;20666;-33
2022/10/10 05:49:53;;;;;;;7.30;4.20;;;10.20;99.90;;;;;;5060435;28;20204;-34
2022/10/10 05:52:20;;;;;;;9.33;5.40;;;10.20;99.90;;;;;;5053075;28;20279;-33
2022/10/10 05:54:48;;;;;;;9.30;4.90;;;10.20;99.90;;;;;;5051795;28;20575;-34
2022/10/10 05:57:15;;;;;;;8.33;4.40;;;10.20;99.90;;;;;;5057065;28;20255;-33
2022/10/10 05:59:47;;;;;;;8.70;4.10;;;10.20;99.90;;;;;;5060155;28;20195;-33
2022/10/10 06:02:14;;;;;;;9.93;4.73;;;10.20;99.90;;;;;;5064391;28;20211;-33
2022/10/10 06:04:41;;;;;;;8.37;4.90;;;10.20;99.90;;;;;;5059182;28;20823;-33
2022/10/10 06:07:09;;;;;;;7.23;4.07;;;10.20;99.90;;;;;;5067431;28;20206;-33
2022/10/10 06:09:36;;;;;;;6.70;4.03;;;10.20;99.90;;;;;;5065468;28;20666;-34
2022/10/10 06:12:05;;;;;;;8.73;4.87;;;10.30;99.90;;;;;;5068726;28;20538;-34
2022/10/10 06:14:32;;;;;;;7.43;4.73;;;10.30;99.90;;;;;;5066454;28;20609;-34
2022/10/10 06:17:00;;;;;;;8.87;4.80;;;10.30;99.90;;;;;;5067915;28;20618;-34
2022/10/10 06:19:27;;;;;;;12.00;5.23;;;10.30;99.90;;;;;;5067917;28;20239;-34
2022/10/10 06:21:54;;;;;;;8.17;4.50;;;10.30;99.90;;;;;;5069079;28;20950;-34
2022/10/10 06:24:24;;;;;;;9.50;4.50;;;10.30;99.90;;;;;;5069114;28;20223;-34
2022/10/10 06:26:51;;;;;;;9.70;4.80;;;10.40;99.90;;;;;;5067729;28;20207;-34
2022/10/10 06:29:18;;;;;;;8.20;4.67;;;10.40;99.90;;;;;;5068515;28;20570;-34
2022/10/10 06:31:45;;;;;;;9.03;4.60;;;10.40;99.90;;;;;;5065261;28;20339;-32
2022/10/10 06:34:13;;;;;;;8.03;4.20;;;10.40;99.90;;;;;;5070063;28;20324;-33
2022/10/10 06:36:42;;;;;;;28.53;5.73;;;10.50;99.90;;;;;;5056332;28;20630;-33
2022/10/10 06:39:09;;;;;;;13.33;5.13;;;10.50;99.90;;;;;;5065353;28;20226;-32
2022/10/10 06:41:39;;;;;;;10.03;4.63;;;10.50;99.90;;;;;;5067277;28;20235;-33
2022/10/10 06:44:06;;;;;;;10.03;4.70;;;10.50;99.90;;;;;;5067247;28;20215;-32
2022/10/10 06:46:36;;;;;;;5.40;3.80;;;10.60;99.90;;;;;;5061226;28;20196;-32
2022/10/10 06:49:04;;;;;;;7.47;4.20;;;10.60;99.90;;;;;;5055759;28;20212;-32
2022/10/10 06:51:31;;;;;;;13.83;5.93;;;10.70;99.90;;;;;;5069758;28;20647;-32
2022/10/10 06:53:58;;;;;;;19.90;5.60;;;10.70;99.90;;;;;;5068613;28;20195;-33
2022/10/10 06:56:28;;;;;;;13.57;5.43;;;10.70;99.90;;;;;;5069626;28;20223;-32
2022/10/10 06:59:00;;;;;;;15.40;6.00;;;10.80;99.90;;;;;;5058359;28;20220;-33
2022/10/10 07:01:28;;;;;;;12.20;5.40;;;10.80;99.90;;;;;;5054524;28;20253;-32
2022/10/10 07:03:55;;;;;;;8.17;5.13;;;10.90;99.90;;;;;;5063998;28;20199;-32
2022/10/10 07:06:22;;;;;;;8.40;4.23;;;10.90;99.90;;;;;;5069240;28;20209;-32
2022/10/10 07:08:49;;;;;;;7.83;4.60;;;11.00;99.90;;;;;;5069473;28;20555;-32
2022/10/10 07:11:17;;;;;;;8.17;5.00;;;11.00;99.90;;;;;;5049450;28;20256;-32
2022/10/10 07:13:44;;;;;;;14.40;4.67;;;11.10;99.90;;;;;;5065563;28;20209;-32
2022/10/10 07:16:12;;;;;;;12.43;5.07;;;11.20;99.90;;;;;;5067404;28;20204;-32
2022/10/10 07:18:41;;;;;;;7.77;4.60;;;11.20;99.90;;;;;;5052325;28;20240;-32
2022/10/10 07:21:08;;;;;;;8.50;4.40;;;11.30;99.90;;;;;;5048809;28;20303;-32
2022/10/10 07:23:38;;;;;;;10.20;4.83;;;11.40;99.90;;;;;;5051446;28;20257;-32
2022/10/10 07:26:12;;;;;;;8.87;4.60;;;11.50;99.90;;;;;;5069034;28;20302;-32
2022/10/10 07:28:39;;;;;;;12.47;4.70;;;11.60;99.90;;;;;;5068441;28;20199;-32
2022/10/10 07:31:09;;;;;;;10.30;4.00;;;11.70;99.90;;;;;;5062917;28;20257;-32
2022/10/10 07:33:44;;;;;;;7.63;4.00;;;11.80;99.90;;;;;;5050404;28;20192;-32
2022/10/10 07:36:17;;;;;;;7.23;3.90;;;11.90;99.90;;;;;;5067475;28;20199;-32
2022/10/10 07:38:48;;;;;;;7.03;4.00;;;12.00;99.90;;;;;;5065889;28;20367;-32
2022/10/10 07:41:16;;;;;;;11.27;4.37;;;12.20;99.90;;;;;;5065315;28;20674;-32
2022/10/10 07:43:43;;;;;;;14.10;4.53;;;12.30;99.90;;;;;;5048716;28;20272;-32
2022/10/10 07:46:16;;;;;;;11.00;4.43;;;12.30;99.90;;;;;;5064163;28;20238;-32
2022/10/10 07:48:47;;;;;;;11.17;4.00;;;12.40;99.90;;;;;;5065138;28;20195;-32
2022/10/10 07:51:17;;;;;;;6.83;3.97;;;12.50;99.90;;;;;;5067481;28;20272;-32
2022/10/10 07:53:44;;;;;;;12.07;4.30;;;12.60;99.90;;;;;;5065240;28;20253;-32
2022/10/10 07:56:14;;;;;;;11.83;4.13;;;12.70;99.90;;;;;;5062621;28;20689;-32
2022/10/10 07:58:44;;;;;;;8.27;4.90;;;12.80;99.90;;;;;;5063278;28;20195;-32
2022/10/10 08:01:12;;;;;;;6.83;3.90;;;12.80;99.90;;;;;;5067849;28;20227;-32
2022/10/10 08:03:40;;;;;;;7.37;4.20;;;12.90;99.90;;;;;;5066388;28;20242;-32
2022/10/10 08:06:12;;;;;;;8.27;4.13;;;13.00;99.90;;;;;;5066744;28;20231;-32
2022/10/10 08:08:40;;;;;;;7.47;4.07;;;13.00;99.90;;;;;;5065766;28;20203;-32
2022/10/10 08:11:18;;;;;;;7.53;4.50;;;13.10;99.90;;;;;;5068020;28;20739;-32
2022/10/10 08:13:45;;;;;;;7.63;4.27;;;13.10;99.90;;;;;;5063705;28;20223;-32
2022/10/10 08:16:12;;;;;;;10.00;4.87;;;13.20;99.90;;;;;;5064204;28;20210;-32
2022/10/10 08:18:42;;;;;;;11.87;4.33;;;13.20;99.90;;;;;;5060112;28;20243;-32
2022/10/10 08:21:11;;;;;;;8.37;4.40;;;13.30;99.90;;;;;;5066841;28;20281;-32
2022/10/10 08:23:39;;;;;;;7.97;3.97;;;13.30;99.90;;;;;;5067663;28;20240;-32
2022/10/10 08:26:08;;;;;;;10.03;4.30;;;13.40;99.90;;;;;;5068309;28;20699;-32
2022/10/10 08:28:38;;;;;;;6.33;3.87;;;13.50;99.90;;;;;;5065138;28;20222;-32
2022/10/10 08:31:18;;;;;;;20.20;4.83;;;13.60;99.90;;;;;;5062112;28;20216;-32
2022/10/10 08:33:46;;;;;;;18.57;5.17;;;13.60;99.90;;;;;;5066237;28;20290;-32
2022/10/10 08:36:24;;;;;;;12.87;4.63;;;13.80;99.90;;;;;;5065591;28;20212;-32
2022/10/10 08:38:58;;;;;;;10.43;4.67;;;13.80;99.90;;;;;;5068702;28;20553;-32
2022/10/10 08:41:50;;;;;;;13.80;4.57;;;13.90;99.90;;;;;;5066072;28;20724;-32
2022/10/10 08:44:32;;;;;;;8.27;4.10;;;14.00;99.90;;;;;;5067518;28;20573;-32
2022/10/10 08:47:19;;;;;;;9.20;4.17;;;14.10;99.90;;;;;;5059592;28;20235;-32
2022/10/10 08:49:57;;;;;;;7.07;4.00;;;14.20;99.90;;;;;;5070518;28;20672;-31
2022/10/10 08:52:37;;;;;;;9.73;3.50;;;14.30;99.90;;;;;;5065038;28;20827;-32
2022/10/10 08:55:32;;;;;;;10.53;4.13;;;14.30;99.90;;;;;;5052529;28;20195;-32
2022/10/10 08:58:29;;;;;;;8.73;3.80;;;14.50;99.90;;;;;;5046773;28;20203;-31
2022/10/10 09:01:22;;;;;;;6.87;4.03;;;14.60;99.90;;;;;;5055125;28;20197;-32
2022/10/10 09:04:00;;;;;;;8.73;3.80;;;14.70;99.90;;;;;;5062392;28;20207;-31
2022/10/10 09:06:35;;;;;;;9.93;4.00;;;14.80;99.90;;;;;;5064210;28;20716;-30
2022/10/10 09:09:11;;;;;;;12.43;3.80;;;14.90;99.90;;;;;;5065224;28;20825;-32
2022/10/10 09:11:57;;;;;;;10.27;3.93;;;15.10;99.90;;;;;;5067040;28;20334;-32
2022/10/10 09:14:37;;;;;;;10.13;4.30;;;15.20;99.90;;;;;;5062871;28;20197;-32
2022/10/10 09:17:35;;;;;;;9.43;4.30;;;15.40;99.90;;;;;;5062833;28;20192;-32
2022/10/10 09:20:20;;;;;;;16.17;4.53;;;15.60;99.90;;;;;;5064266;28;20211;-32
2022/10/10 09:23:10;;;;;;;14.17;5.07;;;15.70;99.90;;;;;;5059769;28;20652;-32
2022/10/10 09:25:45;;;;;;;5.97;3.70;;;15.80;99.90;;;;;;5067058;28;20719;-32
2022/10/10 09:28:20;;;;;;;10.23;3.83;;;15.90;99.90;;;;;;5067471;28;20621;-32
2022/10/10 09:30:53;;;;;;;9.13;4.00;;;16.00;99.90;;;;;;5061143;28;20199;-31
2022/10/10 09:33:30;;;;;;;8.73;3.93;;;16.20;99.90;;;;;;5051823;28;20806;-31
2022/10/10 09:36:00;;;;;;;11.37;4.10;;;16.30;99.90;;;;;;5065181;28;20252;-31
2022/10/10 09:38:33;;;;;;;8.47;3.80;;;16.40;99.90;;;;;;5066116;28;20196;-32
2022/10/10 09:41:13;;;;;;;9.97;3.37;;;16.50;99.90;;;;;;5065391;28;20204;-31
2022/10/10 09:43:41;;;;;;;6.87;3.73;;;16.50;99.90;;;;;;5065617;28;20203;-33
2022/10/10 09:46:08;;;;;;;5.57;3.53;;;16.60;99.90;;;;;;5063141;28;20681;-33
2022/10/10 09:48:38;;;;;;;10.03;4.47;;;16.60;99.90;;;;;;5070588;28;20215;-32
2022/10/10 09:51:17;;;;;;;8.10;3.77;;;16.70;99.90;;;;;;5072909;28;20204;-31
2022/10/10 09:53:46;;;;;;;10.00;4.40;;;16.80;99.90;;;;;;5068685;28;20298;-32
2022/10/10 09:56:39;;;;;;;5.83;3.20;;;16.90;99.90;;;;;;5068010;28;20265;-32
2022/10/10 09:59:37;;;;;;;7.77;3.13;;;16.90;99.90;;;;;;5067564;28;20231;-32
2022/10/10 10:02:25;;;;;;;9.30;3.53;;;16.90;99.90;;;;;;5058155;28;20211;-32
2022/10/10 10:04:55;;;;;;;8.37;3.37;;;17.00;99.90;;;;;;5056816;28;20303;-32
2022/10/10 10:07:22;;;;;;;13.37;4.10;;;17.00;99.90;;;;;;5056754;28;20238;-33
2022/10/10 10:09:56;;;;;;;8.73;3.10;;;17.10;99.90;;;;;;5067047;28;20215;-31
2022/10/10 10:12:29;;;;;;;7.57;2.90;;;17.20;99.90;;;;;;5065656;28;20228;-32
2022/10/10 10:15:03;;;;;;;7.03;3.07;;;17.20;99.90;;;;;;5069300;28;20314;-33
2022/10/10 10:17:31;;;;;;;8.63;3.20;;;17.30;99.90;;;;;;5067796;28;20191;-32
2022/10/10 10:19:59;;;;;;;7.13;2.93;;;17.30;99.90;;;;;;5064827;28;20721;-32
2022/10/10 10:22:36;;;;;;;6.13;2.83;;;17.40;99.90;;;;;;5069863;28;20211;-32
2022/10/10 10:25:37;;;;;;;6.27;3.03;;;17.50;99.90;;;;;;5066748;28;20201;-32
2022/10/10 10:28:10;;;;;;;6.57;3.00;;;17.50;99.90;;;;;;5067709;28;20211;-32
2022/10/10 10:30:39;;;;;;;6.13;3.10;;;17.60;99.90;;;;;;5065039;28;20287;-32
2022/10/10 10:33:13;;;;;;;9.00;3.17;;;17.70;99.90;;;;;;5050603;28;20267;-32
2022/10/10 10:35:54;;;;;;;7.20;2.87;;;17.80;99.90;;;;;;5060523;28;20195;-32
2022/10/10 10:38:32;;;;;;;9.33;3.10;;;17.90;99.90;;;;;;5067571;28;20623;-32
2022/10/10 10:41:08;;;;;;;8.30;3.07;;;17.90;99.90;;;;;;5062036;28;20215;-33
2022/10/10 10:43:59;;;;;;;10.90;3.00;;;18.00;99.90;;;;;;5065255;28;20244;-32
2022/10/10 10:46:50;;;;;;;11.83;3.70;;;18.10;99.90;;;;;;5054549;28;20689;-32
2022/10/10 10:49:29;;;;;;;6.83;2.87;;;18.10;99.90;;;;;;5049632;28;20219;-32
2022/10/10 10:52:24;;;;;;;8.23;2.87;;;18.20;99.90;;;;;;5061202;28;20215;-32
2022/10/10 10:54:57;;;;;;;8.30;2.97;;;18.30;99.90;;;;;;5063300;28;20204;-31
2022/10/10 10:57:46;;;;;;;7.37;2.57;;;18.40;99.90;;;;;;5063011;28;20204;-32
2022/10/10 11:00:44;;;;;;;10.77;2.60;;;18.50;99.90;;;;;;5071115;28;20195;-32
2022/10/10 11:03:35;;;;;;;7.23;3.00;;;18.50;99.90;;;;;;5064503;28;20204;-32
2022/10/10 11:06:34;;;;;;;5.40;2.83;;;18.60;99.90;;;;;;5068664;28;20200;-32
2022/10/10 11:09:22;;;;;;;7.00;2.73;;;18.60;99.90;;;;;;5067496;28;20207;-32
2022/10/10 11:12:28;;;;;;;8.47;2.70;;;18.70;99.90;;;;;;5070954;28;20308;-33
2022/10/10 11:15:08;;;;;;;8.83;2.80;;;18.80;99.90;;;;;;5068970;28;20286;-32
2022/10/10 11:17:44;;;;;;;5.50;2.37;;;18.80;99.90;;;;;;5068733;28;20243;-32
2022/10/10 11:20:35;;;;;;;7.13;2.60;;;18.80;99.90;;;;;;5082474;28;20199;-32
2022/10/10 11:23:19;;;;;;;7.33;3.10;;;18.90;99.90;;;;;;5063129;28;20208;-32
2022/10/10 11:25:54;;;;;;;12.63;2.70;;;19.00;99.90;;;;;;5069102;28;20191;-32
2022/10/10 11:28:42;;;;;;;7.20;2.97;;;19.00;99.90;;;;;;5070647;28;20594;-32
2022/10/10 11:31:21;;;;;;;8.40;2.90;;;19.10;99.90;;;;;;5056556;28;20271;-32
2022/10/10 11:33:58;;;;;;;7.13;2.87;;;19.10;99.90;;;;;;5067788;28;20214;-32
2022/10/10 11:36:30;;;;;;;9.20;3.40;;;19.20;99.90;;;;;;5068707;28;20286;-32
2022/10/10 11:39:03;;;;;;;10.37;3.17;;;19.30;99.90;;;;;;5059709;28;20642;-32
2022/10/10 11:41:43;;;;;;;11.20;3.17;;;19.40;99.90;;;;;;5051900;28;20204;-32
2022/10/10 11:44:42;;;;;;;15.80;3.77;;;19.50;99.90;;;;;;5062473;28;20582;-31
2022/10/10 11:47:31;;;;;;;7.57;2.80;;;19.60;99.90;;;;;;5065436;28;20206;-33
2022/10/10 11:50:37;;;;;;;8.20;2.90;;;19.70;99.90;;;;;;5062403;28;20222;-32
2022/10/10 11:53:06;;;;;;;9.48;3.03;;;19.70;99.90;;;;;;5063958;28;20232;-32
2022/10/10 11:55:58;;;;;;;12.27;3.57;;;19.80;99.90;;;;;;5066318;28;20196;-32
2022/10/10 11:58:45;;;;;;;14.30;3.23;;;19.90;99.90;;;;;;5064492;28;20304;-32
2022/10/10 12:01:21;;;;;;;18.83;3.83;;;20.00;99.90;;;;;;5061729;28;20199;-33
2022/10/10 12:03:52;;;;;;;16.00;3.67;;;20.10;99.90;;;;;;5049692;28;20192;-32
2022/10/10 12:06:34;;;;;;;8.43;2.35;;;20.10;99.90;;;;;;5061759;28;20723;-33
2022/10/10 12:09:26;;;;;;;5.53;2.20;;;20.20;99.90;;;;;;5049754;28;20254;-32
2022/10/10 12:11:59;;;;;;;6.32;2.10;;;20.20;99.90;;;;;;5054495;28;20216;-32
2022/10/10 12:14:30;;;;;;;11.33;2.17;;;20.10;99.90;;;;;;5052698;28;20618;-31
2022/10/10 12:17:00;;;;;;;6.13;1.92;;;20.10;99.90;;;;;;5066967;28;20214;-31
2022/10/10 12:19:28;;;;;;;7.82;3.28;;;20.10;99.90;;;;;;5064530;28;20232;-31
2022/10/10 12:22:04;;;;;;;7.13;2.53;;;20.10;99.90;;;;;;5049779;28;20295;-31
2022/10/10 12:24:37;;;;;;;7.38;2.25;;;20.10;99.90;;;;;;5057183;28;20285;-32
2022/10/10 12:27:28;;;;;;;10.23;2.20;;;20.10;99.90;;;;;;5052681;28;20214;-31
2022/10/10 12:29:55;;;;;;;7.43;2.42;;;20.10;99.90;;;;;;5064050;28;20221;-32
2022/10/10 12:32:28;;;;;;;7.70;2.40;;;20.10;99.90;;;;;;5060760;28;20265;-31
2022/10/10 12:34:58;;;;;;;6.43;2.20;;;20.10;99.90;;;;;;5065593;28;20200;-33
2022/10/10 12:37:54;;;;;;;5.63;2.50;;;20.10;99.90;;;;;;5057307;28;20646;-32
2022/10/10 12:40:22;;;;;;;8.00;2.45;;;20.10;99.90;;;;;;5058250;28;20208;-33
2022/10/10 12:42:55;;;;;;;11.95;2.58;;;20.10;99.90;;;;;;5062537;28;20298;-33
2022/10/10 12:45:28;;;;;;;4.35;2.10;;;20.10;99.90;;;;;;5063713;28;20246;-32
2022/10/10 12:48:20;;;;;;;5.32;2.25;;;20.10;99.90;;;;;;5048784;28;20279;-33
2022/10/10 12:51:21;;;;;;;5.00;2.17;;;20.20;99.90;;;;;;5047566;28;20212;-32
2022/10/10 12:53:53;;;;;;;3.92;2.10;;;20.20;99.90;;;;;;5061436;28;20221;-32
2022/10/10 12:56:43;;;;;;;9.50;2.85;;;20.20;99.90;;;;;;5065428;28;20199;-33
2022/10/10 12:59:23;;;;;;;9.63;3.00;;;20.20;99.90;;;;;;5048593;28;20204;-32
2022/10/10 13:02:02;;;;;;;5.13;2.22;;;20.20;99.90;;;;;;5056307;28;20196;-32
2022/10/10 13:04:30;;;;;;;8.75;2.80;;;20.20;99.90;;;;;;5052642;28;20277;-31
2022/10/10 13:07:00;;;;;;;6.47;2.40;;;20.20;99.90;;;;;;5050392;28;20203;-32
2022/10/10 13:09:32;;;;;;;9.10;2.50;;;20.30;99.90;;;;;;5051477;28;20219;-32
2022/10/10 13:12:06;;;;;;;10.30;2.67;;;20.30;99.90;;;;;;5056256;28;20212;-33
2022/10/10 13:14:44;;;;;;;7.35;3.42;;;20.30;99.90;;;;;;5053155;28;20300;-32
2022/10/10 13:17:30;;;;;;;7.03;2.70;;;20.30;99.90;;;;;;5073055;28;20321;-32
2022/10/10 13:19:59;;;;;;;4.70;2.43;;;20.30;99.90;;;;;;5064964;28;20664;-32